Time;durP1;ratioP1;P1;durP2;ratioP2;P2;SDS_P1;SDS_P2;PMS_P1;PMS_P2;Temp;Humidity;BMP_temperature;BMP_pressure;BME280_temperature;BME280_humidity;BME280_pressure;Samples;Min_cycle;Max_cycle;Signal;HPM_P1;HPM_P2
2023/08/16 00:01:04;;;;;;;0.20;0.20;;;16.20;99.90;;;;;;5051316;28;20115;-78
2023/08/16 00:03:30;;;;;;;0.20;0.20;;;16.10;99.90;;;;;;5046833;28;20494;-78
2023/08/16 00:05:55;;;;;;;0.20;0.20;;;16.10;99.90;;;;;;5043727;28;20060;-79
2023/08/16 00:08:21;;;;;;;0.20;0.20;;;16.10;99.90;;;;;;5046633;28;20037;-78
2023/08/16 00:10:47;;;;;;;0.20;0.20;;;16.10;99.90;;;;;;5048452;28;20079;-79
2023/08/16 00:13:13;;;;;;;0.10;0.10;;;16.10;99.90;;;;;;5046615;28;20111;-79
2023/08/16 00:15:38;;;;;;;0.20;0.20;;;16.00;99.90;;;;;;5043170;28;20507;-79
2023/08/16 00:18:04;;;;;;;0.10;0.10;;;16.00;99.90;;;;;;5050544;28;20040;-79
2023/08/16 00:20:30;;;;;;;0.20;0.20;;;16.00;99.90;;;;;;5046413;28;20044;-79
2023/08/16 00:22:56;;;;;;;0.10;0.10;;;16.00;99.90;;;;;;5046832;28;20039;-79
2023/08/16 00:25:22;;;;;;;0.17;0.17;;;15.70;99.90;;;;;;5045920;28;20044;-79
2023/08/16 00:27:48;;;;;;;0.20;0.20;;;15.90;99.90;;;;;;5047420;28;20063;-78
2023/08/16 00:30:14;;;;;;;0.20;0.20;;;15.90;99.90;;;;;;5068031;28;20051;-79
2023/08/16 00:32:41;;;;;;;0.20;0.20;;;15.80;99.90;;;;;;5067490;28;20066;-78
2023/08/16 00:35:07;;;;;;;0.20;0.20;;;15.90;99.90;;;;;;5067408;28;20044;-79
2023/08/16 00:37:32;;;;;;;0.15;0.15;;;15.80;99.90;;;;;;5048560;28;20127;-79
2023/08/16 00:39:58;;;;;;;0.10;0.10;;;15.80;99.90;;;;;;5067469;28;20048;-79
2023/08/16 00:42:24;;;;;;;0.20;0.20;;;15.80;99.90;;;;;;5065043;28;20041;-78
2023/08/16 00:44:49;;;;;;;0.20;0.20;;;15.70;99.90;;;;;;5047949;28;20037;-78
2023/08/16 00:47:16;;;;;;;0.20;0.20;;;15.70;99.90;;;;;;5065678;28;20116;-78
2023/08/16 00:49:41;;;;;;;0.20;0.20;;;15.70;99.90;;;;;;5057553;28;20075;-79
2023/08/16 00:52:08;;;;;;;0.20;0.20;;;15.60;99.90;;;;;;5047177;28;20075;-79
2023/08/16 00:54:34;;;;;;;0.20;0.20;;;15.60;99.90;;;;;;5045558;28;20487;-79
2023/08/16 00:57:00;;;;;;;0.10;0.10;;;15.60;99.90;;;;;;5064109;28;20088;-78
2023/08/16 00:59:27;;;;;;;0.10;0.10;;;15.50;99.90;;;;;;5043648;28;20040;-79
2023/08/16 01:01:53;;;;;;;0.10;0.10;;;15.50;99.90;;;;;;5061016;28;20040;-79
2023/08/16 01:04:19;;;;;;;0.20;0.20;;;15.50;99.90;;;;;;5067743;28;20119;-79
2023/08/16 01:06:45;;;;;;;0.10;0.10;;;15.40;99.90;;;;;;5048884;28;20455;-78
2023/08/16 01:09:11;;;;;;;0.10;0.10;;;15.50;99.90;;;;;;5046445;28;20032;-79
2023/08/16 01:12:04;;;;;;;0.17;0.17;;;15.50;99.90;;;;;;5065500;28;20044;-79
2023/08/16 01:14:49;;;;;;;0.10;0.10;;;15.40;99.90;;;;;;5039890;28;20056;-79
2023/08/16 01:17:16;;;;;;;0.10;0.10;;;15.40;99.90;;;;;;5061608;28;20044;-79
2023/08/16 01:19:43;;;;;;;0.10;0.10;;;15.40;99.90;;;;;;5051073;28;20048;-79
2023/08/16 01:22:14;;;;;;;0.10;0.10;;;15.40;99.90;;;;;;5068130;28;20156;-79
2023/08/16 01:25:17;;;;;;;0.20;0.20;;;15.30;99.90;;;;;;5049826;28;20049;-79
2023/08/16 01:27:44;;;;;;;0.10;0.10;;;15.30;99.90;;;;;;5069352;28;20396;-78
2023/08/16 01:30:11;;;;;;;0.10;0.10;;;15.30;99.90;;;;;;5049645;28;20119;-79
2023/08/16 01:32:38;;;;;;;0.10;0.10;;;15.30;99.90;;;;;;5023114;28;20222;-79
2023/08/16 01:35:04;;;;;;;0.10;0.10;;;15.30;99.90;;;;;;5043164;28;20421;-78
2023/08/16 01:37:30;;;;;;;0.20;0.20;;;15.20;99.90;;;;;;5054415;28;20036;-79
2023/08/16 01:40:01;;;;;;;0.20;0.20;;;15.20;99.90;;;;;;5067380;28;20396;-78
2023/08/16 01:42:29;;;;;;;;;;;15.20;99.90;;;;;;5068752;28;21719;-79
2023/08/16 01:44:59;;;;;;;0.17;0.17;;;15.20;99.90;;;;;;5068381;28;19928;-79
2023/08/16 01:47:27;;;;;;;0.20;0.20;;;15.20;99.90;;;;;;5051570;28;20494;-79
2023/08/16 01:49:55;;;;;;;0.10;0.10;;;15.20;99.90;;;;;;5046891;28;20052;-78
2023/08/16 01:52:21;;;;;;;0.10;0.10;;;15.20;99.90;;;;;;5048047;28;20361;-78
2023/08/16 01:54:47;;;;;;;0.10;0.10;;;15.20;99.90;;;;;;5048724;28;20511;-79
2023/08/16 01:57:12;;;;;;;0.20;0.20;;;15.20;99.90;;;;;;5049921;28;20048;-79
2023/08/16 01:59:38;;;;;;;0.20;0.20;;;15.20;99.90;;;;;;5071605;28;20040;-79
2023/08/16 02:02:04;;;;;;;0.20;0.20;;;15.40;99.90;;;;;;5052763;28;20106;-79
2023/08/16 02:04:30;;;;;;;0.13;0.13;;;15.20;99.90;;;;;;5047916;28;20091;-79
2023/08/16 02:06:55;;;;;;;0.13;0.13;;;15.20;99.90;;;;;;5048843;28;20068;-78
2023/08/16 02:09:21;;;;;;;0.15;0.15;;;15.10;99.90;;;;;;5051390;28;20037;-79
2023/08/16 02:11:47;;;;;;;0.20;0.20;;;15.10;99.90;;;;;;5053419;28;20036;-79
2023/08/16 02:14:13;;;;;;;0.20;0.20;;;15.10;99.90;;;;;;5044149;28;20396;-79
2023/08/16 02:16:38;;;;;;;0.10;0.10;;;15.10;99.90;;;;;;5037138;28;20404;-79
2023/08/16 02:19:04;;;;;;;0.10;0.10;;;15.10;99.90;;;;;;5061418;28;20044;-79
2023/08/16 02:21:30;;;;;;;0.20;0.20;;;15.10;99.90;;;;;;5048693;28;20051;-79
2023/08/16 02:23:56;;;;;;;0.10;0.10;;;15.10;99.90;;;;;;5066234;28;20376;-79
2023/08/16 02:26:22;;;;;;;0.10;0.10;;;15.10;99.90;;;;;;5070269;28;20044;-79
2023/08/16 02:28:50;;;;;;;0.20;0.20;;;15.10;99.90;;;;;;5053062;28;20048;-79
2023/08/16 02:31:16;;;;;;;0.10;0.10;;;15.00;99.90;;;;;;5053932;28;20442;-79
2023/08/16 02:33:42;;;;;;;0.15;0.15;;;15.00;99.90;;;;;;5051108;28;20215;-79
2023/08/16 02:36:08;;;;;;;0.20;0.20;;;14.70;99.90;;;;;;5071134;28;20550;-78
2023/08/16 02:38:34;;;;;;;0.20;0.20;;;15.00;99.90;;;;;;5053338;28;20462;-79
2023/08/16 02:41:01;;;;;;;0.20;0.20;;;14.90;99.90;;;;;;5072294;28;20037;-79
2023/08/16 02:43:26;;;;;;;0.20;0.20;;;14.90;99.90;;;;;;5052047;28;20044;-79
2023/08/16 02:45:53;;;;;;;0.20;0.20;;;15.00;99.90;;;;;;5071059;28;20048;-79
2023/08/16 02:48:19;;;;;;;0.20;0.20;;;14.90;99.90;;;;;;5069544;28;20028;-79
2023/08/16 02:50:45;;;;;;;0.20;0.20;;;14.90;99.90;;;;;;5052360;28;20052;-79
2023/08/16 02:53:11;;;;;;;0.10;0.10;;;14.90;99.90;;;;;;5053835;28;20045;-79
2023/08/16 02:55:39;;;;;;;0.17;0.17;;;14.90;99.90;;;;;;5053982;28;20048;-79
2023/08/16 02:58:05;;;;;;;0.20;0.20;;;14.90;99.90;;;;;;5053329;28;20044;-78
2023/08/16 03:00:31;;;;;;;0.10;0.10;;;14.80;99.90;;;;;;5049629;28;20076;-78
2023/08/16 03:02:57;;;;;;;0.20;0.20;;;14.90;99.90;;;;;;5051941;28;20070;-79
2023/08/16 03:05:22;;;;;;;0.10;0.10;;;14.90;99.90;;;;;;5052148;28;20507;-78
2023/08/16 03:07:48;;;;;;;0.10;0.10;;;14.90;99.90;;;;;;5069576;28;20028;-78
2023/08/16 03:10:14;;;;;;;0.20;0.20;;;14.90;99.90;;;;;;5050545;28;20055;-79
2023/08/16 03:12:40;;;;;;;0.20;0.20;;;14.90;99.90;;;;;;5047281;28;20127;-78
2023/08/16 03:15:06;;;;;;;0.10;0.10;;;14.90;99.90;;;;;;5037753;28;20386;-79
2023/08/16 03:17:32;;;;;;;0.17;0.17;;;14.90;99.90;;;;;;5063430;28;20127;-79
2023/08/16 03:19:59;;;;;;;0.20;0.20;;;15.00;99.90;;;;;;5070954;28;20112;-79
2023/08/16 03:22:24;;;;;;;0.20;0.20;;;15.00;99.90;;;;;;5063717;28;20052;-79
2023/08/16 03:24:50;;;;;;;0.20;0.20;;;15.00;99.90;;;;;;5050348;28;20040;-79
2023/08/16 03:27:16;;;;;;;0.20;0.20;;;15.00;99.90;;;;;;5070197;28;20503;-79
2023/08/16 03:29:41;;;;;;;0.10;0.10;;;15.00;99.90;;;;;;5047427;28;20140;-79
2023/08/16 03:32:07;;;;;;;0.20;0.20;;;15.00;99.90;;;;;;5047981;28;20048;-79
2023/08/16 03:34:33;;;;;;;0.20;0.20;;;15.00;99.90;;;;;;5067548;28;20091;-79
2023/08/16 03:36:59;;;;;;;0.20;0.20;;;15.00;99.90;;;;;;5050003;28;20041;-79
2023/08/16 03:39:25;;;;;;;0.20;0.20;;;15.00;99.90;;;;;;5052508;28;20044;-79
2023/08/16 03:41:50;;;;;;;0.20;0.20;;;15.00;99.90;;;;;;5052223;28;20489;-79
2023/08/16 03:44:16;;;;;;;0.20;0.20;;;15.00;99.90;;;;;;5069863;28;20438;-79
2023/08/16 03:46:42;;;;;;;0.20;0.20;;;15.00;99.90;;;;;;5052864;28;20426;-79
2023/08/16 03:49:07;;;;;;;0.20;0.20;;;15.00;99.90;;;;;;5066973;28;20090;-78
2023/08/16 03:51:33;;;;;;;0.20;0.20;;;15.00;99.90;;;;;;5070095;28;20097;-79
2023/08/16 03:53:59;;;;;;;0.15;0.15;;;15.00;99.90;;;;;;5048332;28;20082;-79
2023/08/16 03:56:25;;;;;;;0.20;0.20;;;15.00;99.90;;;;;;5052478;28;20055;-79
2023/08/16 03:58:51;;;;;;;0.10;0.10;;;15.00;99.90;;;;;;5050583;28;20043;-79
2023/08/16 04:01:17;;;;;;;0.20;0.20;;;15.00;99.90;;;;;;5052190;28;20040;-79
2023/08/16 04:03:43;;;;;;;0.20;0.20;;;15.00;99.90;;;;;;5067025;28;20032;-79
2023/08/16 04:06:12;;;;;;;0.10;0.10;;;15.00;99.90;;;;;;5047883;28;20072;-78
2023/08/16 04:08:39;;;;;;;0.20;0.20;;;15.00;99.90;;;;;;5069542;28;20037;-78
2023/08/16 04:11:06;;;;;;;0.20;0.20;;;15.00;99.90;;;;;;5051036;28;20495;-79
2023/08/16 04:13:32;;;;;;;0.20;0.20;;;15.00;99.90;;;;;;5049153;28;20052;-79
2023/08/16 04:15:58;;;;;;;0.20;0.20;;;15.00;99.90;;;;;;5051106;28;20155;-79
2023/08/16 04:18:25;;;;;;;0.10;0.10;;;15.00;99.90;;;;;;5044126;28;20056;-78
2023/08/16 04:20:50;;;;;;;0.20;0.20;;;14.90;99.90;;;;;;5048949;28;20087;-79
2023/08/16 04:23:17;;;;;;;0.20;0.20;;;14.90;99.90;;;;;;5065366;28;20185;-79
2023/08/16 04:25:42;;;;;;;0.20;0.20;;;14.90;99.90;;;;;;5065086;28;20089;-79
2023/08/16 04:28:08;;;;;;;0.20;0.20;;;14.90;99.90;;;;;;5051247;28;20119;-78
2023/08/16 04:30:34;;;;;;;0.10;0.10;;;14.90;99.90;;;;;;5050701;28;20047;-78
2023/08/16 04:33:03;;;;;;;0.15;0.15;;;14.90;99.90;;;;;;5044721;28;20028;-78
2023/08/16 04:35:28;;;;;;;0.10;0.10;;;14.80;99.90;;;;;;5069926;28;20044;-78
2023/08/16 04:37:54;;;;;;;0.10;0.10;;;14.80;99.90;;;;;;5068529;28;20039;-78
2023/08/16 04:40:20;;;;;;;0.10;0.10;;;14.90;99.90;;;;;;5048903;28;20048;-77
2023/08/16 04:42:46;;;;;;;0.20;0.20;;;14.90;99.90;;;;;;5050149;28;20032;-78
2023/08/16 04:45:12;;;;;;;0.20;0.20;;;14.90;99.90;;;;;;5048795;28;20056;-78
2023/08/16 04:47:37;;;;;;;0.20;0.20;;;14.90;99.90;;;;;;5045979;28;20047;-78
2023/08/16 04:50:08;;;;;;;0.17;0.17;;;14.90;99.90;;;;;;5047496;28;20052;-78
2023/08/16 04:52:35;;;;;;;0.20;0.20;;;14.90;99.90;;;;;;5050273;28;20400;-78
2023/08/16 04:55:01;;;;;;;0.20;0.20;;;14.80;99.90;;;;;;5046975;28;20466;-77
2023/08/16 04:57:27;;;;;;;0.20;0.20;;;14.80;99.90;;;;;;5047967;28;20044;-78
2023/08/16 04:59:53;;;;;;;0.20;0.20;;;14.80;99.90;;;;;;5063170;28;20033;-79
2023/08/16 05:02:18;;;;;;;0.20;0.20;;;14.90;99.90;;;;;;5046924;28;20052;-78
2023/08/16 05:04:44;;;;;;;0.20;0.20;;;14.90;99.90;;;;;;5049293;28;20048;-78
2023/08/16 05:07:10;;;;;;;0.20;0.20;;;14.90;99.90;;;;;;5034050;28;20044;-78
2023/08/16 05:09:36;;;;;;;0.17;0.17;;;14.90;99.90;;;;;;5049269;28;20041;-79
2023/08/16 05:12:02;;;;;;;0.10;0.10;;;15.00;99.90;;;;;;5048788;28;20041;-78
2023/08/16 05:14:28;;;;;;;0.10;0.10;;;14.80;99.90;;;;;;5060203;28;20032;-79
2023/08/16 05:16:54;;;;;;;0.17;0.17;;;15.00;99.90;;;;;;5050987;28;20131;-78
2023/08/16 05:19:19;;;;;;;0.20;0.20;;;15.00;99.90;;;;;;5041132;28;20049;-78
2023/08/16 05:21:45;;;;;;;0.20;0.20;;;15.10;99.90;;;;;;5044938;28;20467;-78
2023/08/16 05:24:11;;;;;;;0.15;0.15;;;15.10;99.90;;;;;;5032960;28;20132;-78
2023/08/16 05:26:37;;;;;;;0.10;0.10;;;15.10;99.90;;;;;;5047887;28;20381;-79
2023/08/16 05:29:03;;;;;;;0.20;0.20;;;15.10;99.90;;;;;;5064341;28;20072;-78
2023/08/16 05:31:28;;;;;;;0.20;0.20;;;15.10;99.90;;;;;;5051767;28;20040;-78
2023/08/16 05:33:54;;;;;;;0.20;0.20;;;15.20;99.90;;;;;;5053364;28;20049;-78
2023/08/16 05:36:20;;;;;;;0.10;0.10;;;15.20;99.90;;;;;;5050114;28;20481;-78
2023/08/16 05:38:46;;;;;;;0.20;0.20;;;15.30;99.90;;;;;;5045016;28;20127;-78
2023/08/16 05:41:12;;;;;;;0.20;0.20;;;15.30;99.90;;;;;;5055128;28;20134;-79
2023/08/16 05:43:38;;;;;;;0.20;0.20;;;15.40;99.90;;;;;;5048767;28;20110;-78
2023/08/16 05:46:03;;;;;;;0.10;0.10;;;15.50;99.90;;;;;;5072541;28;20036;-78
2023/08/16 05:48:32;;;;;;;0.20;0.20;;;15.50;99.90;;;;;;5069917;28;20071;-77
2023/08/16 05:50:58;;;;;;;0.10;0.10;;;15.60;99.90;;;;;;5072564;28;20119;-78
2023/08/16 05:53:23;;;;;;;0.13;0.13;;;15.70;99.90;;;;;;5052872;28;20116;-77
2023/08/16 05:55:49;;;;;;;0.10;0.10;;;15.70;99.90;;;;;;5070548;28;20123;-79
2023/08/16 05:58:15;;;;;;;0.10;0.10;;;15.80;99.90;;;;;;5067325;28;20486;-78
2023/08/16 06:00:41;;;;;;;0.10;0.10;;;15.80;99.90;;;;;;5051143;28;20530;-78
2023/08/16 06:03:06;;;;;;;0.20;0.20;;;15.90;99.90;;;;;;5053162;28;20044;-80
2023/08/16 06:05:33;;;;;;;0.20;0.20;;;15.90;99.90;;;;;;5049987;28;20377;-79
2023/08/16 06:07:58;;;;;;;0.10;0.10;;;16.00;99.90;;;;;;5053695;28;20036;-79
2023/08/16 06:10:24;;;;;;;0.10;0.10;;;16.00;99.90;;;;;;5053665;28;20033;-80
2023/08/16 06:12:50;;;;;;;0.20;0.20;;;16.10;99.90;;;;;;5053771;28;20073;-79
2023/08/16 06:15:16;;;;;;;0.20;0.20;;;16.10;99.90;;;;;;5041103;28;20057;-80
2023/08/16 06:17:42;;;;;;;0.10;0.10;;;16.20;99.90;;;;;;5047025;28;20124;-79
2023/08/16 06:20:09;;;;;;;0.20;0.20;;;16.30;99.90;;;;;;5041817;28;20041;-79
2023/08/16 06:22:37;;;;;;;0.10;0.10;;;16.30;99.90;;;;;;5046576;28;20140;-78
2023/08/16 06:25:05;;;;;;;0.15;0.15;;;16.40;99.90;;;;;;5047522;28;20392;-80
2023/08/16 06:27:30;;;;;;;0.15;0.15;;;16.40;99.90;;;;;;5047270;28;20060;-79
2023/08/16 06:29:56;;;;;;;0.20;0.20;;;16.50;99.90;;;;;;5048577;28;20046;-79
2023/08/16 06:32:22;;;;;;;0.10;0.10;;;16.50;99.90;;;;;;5046649;28;20129;-79
2023/08/16 06:34:47;;;;;;;0.20;0.20;;;16.60;99.90;;;;;;5051313;28;20033;-79
2023/08/16 06:37:13;;;;;;;0.10;0.10;;;16.60;99.90;;;;;;5051035;28;20045;-79
2023/08/16 06:39:39;;;;;;;0.10;0.10;;;16.60;99.90;;;;;;5047136;28;20037;-79
2023/08/16 06:42:05;;;;;;;0.10;0.10;;;16.60;99.90;;;;;;5050354;28;20128;-80
2023/08/16 06:44:31;;;;;;;0.10;0.10;;;16.70;99.90;;;;;;5047221;28;20052;-80
2023/08/16 06:46:57;;;;;;;0.20;0.20;;;16.70;99.90;;;;;;5049217;28;20037;-80
2023/08/16 06:49:23;;;;;;;0.20;0.20;;;16.80;99.90;;;;;;5047991;28;20059;-79
2023/08/16 06:51:49;;;;;;;0.20;0.20;;;16.80;99.90;;;;;;5044395;28;20056;-79
2023/08/16 06:54:14;;;;;;;0.20;0.20;;;16.90;99.90;;;;;;5045954;28;20045;-80
2023/08/16 06:56:40;;;;;;;0.10;0.10;;;16.90;99.90;;;;;;5044095;28;20036;-79
2023/08/16 06:59:06;;;;;;;0.20;0.20;;;17.00;99.90;;;;;;5050330;28;20049;-79
2023/08/16 07:01:31;;;;;;;0.20;0.20;;;17.00;99.90;;;;;;5047271;28;20037;-80
2023/08/16 07:03:57;;;;;;;0.20;0.20;;;17.00;99.90;;;;;;5048234;28;20456;-79
2023/08/16 07:06:23;;;;;;;0.15;0.15;;;17.10;99.90;;;;;;5043896;28;20084;-80
2023/08/16 07:08:48;;;;;;;0.10;0.10;;;17.10;99.90;;;;;;5044966;28;20033;-80
2023/08/16 07:11:14;;;;;;;0.20;0.20;;;17.20;99.90;;;;;;5044473;28;20048;-80
2023/08/16 07:13:40;;;;;;;0.20;0.20;;;17.20;99.90;;;;;;5041759;28;20373;-80
2023/08/16 07:16:05;;;;;;;0.20;0.20;;;17.30;99.90;;;;;;5036378;28;20053;-80
2023/08/16 07:18:31;;;;;;;0.20;0.20;;;17.30;99.90;;;;;;5030588;28;20044;-80
2023/08/16 07:20:57;;;;;;;0.10;0.10;;;17.40;99.90;;;;;;5026017;28;20064;-79
2023/08/16 07:23:22;;;;;;;0.10;0.10;;;17.40;99.90;;;;;;5033924;28;20044;-80
2023/08/16 07:25:54;;;;;;;0.30;0.30;;;17.40;99.90;;;;;;5025081;28;20038;-79
2023/08/16 07:28:20;;;;;;;0.10;0.10;;;17.50;99.90;;;;;;5031580;28;20044;-78
2023/08/16 07:30:45;;;;;;;0.20;0.20;;;17.50;99.90;;;;;;5013825;28;20053;-80
2023/08/16 07:33:11;;;;;;;0.15;0.15;;;17.60;99.90;;;;;;5035226;28;20042;-79
2023/08/16 07:35:37;;;;;;;0.20;0.20;;;17.60;99.90;;;;;;5029600;28;20723;-79
2023/08/16 07:38:03;;;;;;;0.10;0.10;;;17.70;99.90;;;;;;5013391;28;20029;-80
2023/08/16 07:40:29;;;;;;;0.10;0.10;;;17.70;99.90;;;;;;5032344;28;20041;-80
2023/08/16 07:42:54;;;;;;;0.30;0.30;;;17.80;99.90;;;;;;5028883;28;20050;-80
2023/08/16 07:45:21;;;;;;;0.10;0.10;;;17.80;99.90;;;;;;5031036;28;20094;-80
2023/08/16 07:47:47;;;;;;;0.20;0.20;;;17.90;99.90;;;;;;5032281;28;20099;-80
2023/08/16 07:50:13;;;;;;;0.20;0.20;;;18.00;99.90;;;;;;5020903;28;20041;-79
2023/08/16 07:52:38;;;;;;;0.20;0.20;;;18.10;99.90;;;;;;5029586;28;20037;-79
2023/08/16 07:55:04;;;;;;;0.20;0.20;;;18.20;99.90;;;;;;5030533;28;20390;-80
2023/08/16 07:57:31;;;;;;;0.20;0.20;;;18.20;99.90;;;;;;5050651;28;20412;-79
2023/08/16 07:59:56;;;;;;;0.20;0.20;;;18.20;99.90;;;;;;5032546;28;20437;-79
2023/08/16 08:02:22;;;;;;;0.20;0.20;;;18.20;99.90;;;;;;5052008;28;20080;-79
2023/08/16 08:04:48;;;;;;;0.17;0.17;;;18.30;99.90;;;;;;5032159;28;20037;-79
2023/08/16 08:07:14;;;;;;;0.20;0.20;;;18.30;99.90;;;;;;5051136;28;20048;-79
2023/08/16 08:09:39;;;;;;;0.20;0.20;;;18.30;99.90;;;;;;5049851;28;20040;-79
2023/08/16 08:12:06;;;;;;;0.20;0.20;;;18.30;99.90;;;;;;5031205;28;20049;-80
2023/08/16 08:14:32;;;;;;;0.20;0.20;;;18.30;99.90;;;;;;5028403;28;20138;-80
2023/08/16 08:16:58;;;;;;;0.20;0.20;;;18.20;99.90;;;;;;5067125;28;20128;-79
2023/08/16 08:19:24;;;;;;;0.10;0.10;;;18.30;99.90;;;;;;5070127;28;20036;-80
2023/08/16 08:21:50;;;;;;;0.20;0.20;;;18.30;99.90;;;;;;5065520;28;20503;-79
2023/08/16 08:24:16;;;;;;;0.20;0.20;;;18.30;99.90;;;;;;5043044;28;20033;-80
2023/08/16 08:26:43;;;;;;;0.10;0.10;;;18.40;99.90;;;;;;5063495;28;20098;-79
2023/08/16 08:29:08;;;;;;;0.20;0.20;;;18.40;99.90;;;;;;5039523;28;20377;-80
2023/08/16 08:31:34;;;;;;;0.20;0.20;;;18.50;99.90;;;;;;5056596;28;20040;-79
2023/08/16 08:34:00;;;;;;;0.20;0.20;;;18.50;99.90;;;;;;5044616;28;20044;-80
2023/08/16 08:36:25;;;;;;;0.20;0.20;;;18.60;99.90;;;;;;5040388;28;20047;-80
2023/08/16 08:38:51;;;;;;;0.20;0.20;;;18.60;99.90;;;;;;5040637;28;20426;-80
2023/08/16 08:41:21;;;;;;;0.20;0.20;;;18.60;99.90;;;;;;5042022;28;20048;-79
2023/08/16 08:43:48;;;;;;;0.20;0.20;;;18.70;99.90;;;;;;5042695;28;20392;-80
2023/08/16 08:46:15;;;;;;;0.20;0.20;;;18.80;99.90;;;;;;5065229;28;20086;-80
2023/08/16 08:48:41;;;;;;;0.20;0.20;;;18.70;99.90;;;;;;5068304;28;20126;-79
2023/08/16 08:51:06;;;;;;;0.10;0.10;;;18.80;99.90;;;;;;5058983;28;20037;-80
2023/08/16 08:53:32;;;;;;;0.20;0.20;;;18.80;99.90;;;;;;5040834;28;20040;-79
2023/08/16 08:56:07;;;;;;;0.20;0.20;;;18.80;99.90;;;;;;5059454;28;20036;-80
2023/08/16 08:58:33;;;;;;;0.20;0.20;;;18.90;99.90;;;;;;5058994;28;20131;-79
2023/08/16 09:01:01;;;;;;;0.20;0.20;;;19.00;99.90;;;;;;5040660;28;20135;-79
2023/08/16 09:03:28;;;;;;;0.20;0.20;;;19.10;99.90;;;;;;5058150;28;20040;-80
2023/08/16 09:05:56;;;;;;;0.20;0.20;;;19.20;99.90;;;;;;5059026;28;20070;-80
2023/08/16 09:08:26;;;;;;;0.20;0.20;;;19.30;99.90;;;;;;5057550;28;20040;-79
2023/08/16 09:10:52;;;;;;;0.20;0.20;;;19.30;99.90;;;;;;5059023;28;20040;-80
2023/08/16 09:13:20;;;;;;;0.20;0.20;;;19.40;99.90;;;;;;5041100;28;20082;-79
2023/08/16 09:15:46;;;;;;;0.20;0.20;;;19.50;99.90;;;;;;5037954;28;20056;-79
2023/08/16 09:18:16;;;;;;;0.20;0.20;;;19.50;99.90;;;;;;5036748;28;21087;-79
2023/08/16 09:20:42;;;;;;;0.20;0.20;;;19.60;99.90;;;;;;5036448;28;20059;-80
2023/08/16 09:23:16;;;;;;;0.20;0.20;;;19.70;99.90;;;;;;5033815;28;20040;-80
2023/08/16 09:25:41;;;;;;;0.13;0.13;;;19.80;99.90;;;;;;5035705;28;20053;-80
2023/08/16 09:28:16;;;;;;;0.20;0.20;;;19.80;99.90;;;;;;5037235;28;20053;-80
2023/08/16 09:30:42;;;;;;;0.20;0.20;;;19.90;99.90;;;;;;5035965;28;20041;-87
2023/08/16 09:33:12;;;;;;;0.20;0.20;;;20.00;99.90;;;;;;5038032;28;20125;-80
2023/08/16 09:35:51;;;;;;;0.20;0.20;;;20.00;99.90;;;;;;5039335;28;20056;-79
2023/08/16 09:38:21;;;;;;;0.20;0.20;;;20.10;99.90;;;;;;5038153;28;20056;-79
2023/08/16 09:40:51;;;;;;;0.20;0.20;;;20.10;99.90;;;;;;5038697;28;20037;-80
2023/08/16 09:43:18;;;;;;;0.30;0.30;;;20.10;99.90;;;;;;5037165;28;20052;-79
2023/08/16 09:45:47;;;;;;;0.20;0.20;;;20.20;99.90;;;;;;5037242;28;20404;-80
2023/08/16 09:48:13;;;;;;;0.20;0.20;;;20.20;99.90;;;;;;5038467;28;20037;-79
2023/08/16 09:50:39;;;;;;;0.20;0.20;;;20.30;99.90;;;;;;5038429;28;20478;-79
2023/08/16 09:53:05;;;;;;;0.20;0.20;;;20.40;99.90;;;;;;5040697;28;20025;-78
2023/08/16 09:55:33;;;;;;;0.20;0.20;;;20.40;99.90;;;;;;5042908;28;20033;-78
2023/08/16 09:58:00;;;;;;;0.20;0.20;;;20.60;99.90;;;;;;5043449;28;20044;-78
2023/08/16 10:00:27;;;;;;;0.20;0.20;;;20.60;99.90;;;;;;5042212;28;20051;-79
2023/08/16 10:02:53;;;;;;;0.20;0.20;;;20.70;99.90;;;;;;5047271;28;20040;-78
2023/08/16 10:05:20;;;;;;;0.20;0.20;;;20.80;99.90;;;;;;5047755;28;20045;-79
2023/08/16 10:07:47;;;;;;;0.20;0.20;;;20.90;99.90;;;;;;5049265;28;20463;-78
2023/08/16 10:10:14;;;;;;;0.20;0.20;;;20.90;99.90;;;;;;5046429;28;20058;-79
2023/08/16 10:12:40;;;;;;;0.20;0.20;;;21.00;99.90;;;;;;5047044;28;20029;-79
2023/08/16 10:15:07;;;;;;;0.17;0.17;;;21.10;99.90;;;;;;5056083;28;20137;-79
2023/08/16 10:17:35;;;;;;;0.20;0.20;;;21.20;99.90;;;;;;5051118;28;20075;-79
2023/08/16 10:20:04;;;;;;;0.20;0.20;;;21.30;99.90;;;;;;5053499;28;20485;-79
2023/08/16 10:22:39;;;;;;;0.20;0.20;;;21.30;99.90;;;;;;5051095;28;20139;-79
2023/08/16 10:25:13;;;;;;;0.20;0.20;;;21.40;99.90;;;;;;5044550;28;20481;-78
2023/08/16 10:27:43;;;;;;;0.20;0.20;;;21.50;99.90;;;;;;5034730;28;20063;-78
2023/08/16 10:30:12;;;;;;;0.20;0.20;;;21.60;99.90;;;;;;5034594;28;20041;-79
2023/08/16 10:32:41;;;;;;;0.20;0.20;;;21.70;99.90;;;;;;5050998;28;20052;-79
2023/08/16 10:35:09;;;;;;;0.20;0.20;;;21.80;99.90;;;;;;5069825;28;20046;-79
2023/08/16 10:37:34;;;;;;;0.20;0.20;;;21.80;99.90;;;;;;5049264;28;20068;-79
2023/08/16 10:40:00;;;;;;;0.20;0.20;;;21.90;99.90;;;;;;5034287;28;20476;-79
2023/08/16 10:42:26;;;;;;;0.20;0.20;;;22.00;99.90;;;;;;5062566;28;20052;-78
2023/08/16 10:44:52;;;;;;;0.20;0.20;;;22.00;99.90;;;;;;5049819;28;20041;-79
2023/08/16 10:47:29;;;;;;;0.20;0.20;;;22.00;99.90;;;;;;5051822;28;20082;-80
2023/08/16 10:49:54;;;;;;;0.20;0.20;;;22.10;99.90;;;;;;5053858;28;20033;-79
2023/08/16 10:52:30;;;;;;;0.20;0.20;;;22.10;99.90;;;;;;5047130;28;20041;-79
2023/08/16 10:54:58;;;;;;;0.20;0.20;;;22.10;99.90;;;;;;5052812;28;20037;-79
2023/08/16 10:57:25;;;;;;;0.20;0.20;;;22.20;99.90;;;;;;5054938;28;20060;-79
2023/08/16 11:00:06;;;;;;;0.20;0.20;;;22.20;99.90;;;;;;5052998;28;20079;-79
2023/08/16 11:02:34;;;;;;;0.20;0.20;;;22.30;99.90;;;;;;5070891;28;20045;-79
2023/08/16 11:05:00;;;;;;;0.20;0.20;;;22.40;99.90;;;;;;5071490;28;20037;-79
2023/08/16 11:07:28;;;;;;;0.20;0.20;;;22.40;99.90;;;;;;5052120;28;20051;-79
2023/08/16 11:10:00;;;;;;;0.20;0.20;;;22.50;99.90;;;;;;5049696;28;20041;-78
2023/08/16 11:12:31;;;;;;;0.20;0.20;;;22.60;99.90;;;;;;5066936;28;20549;-79
2023/08/16 11:14:58;;;;;;;0.20;0.20;;;22.70;99.90;;;;;;5070141;28;20049;-79
2023/08/16 11:17:27;;;;;;;0.20;0.20;;;22.80;99.90;;;;;;5054368;28;20049;-79
2023/08/16 11:19:53;;;;;;;0.20;0.20;;;22.80;99.90;;;;;;5048913;28;20052;-79
2023/08/16 11:22:21;;;;;;;0.20;0.20;;;22.80;99.90;;;;;;5067201;28;20123;-79
2023/08/16 11:24:47;;;;;;;0.20;0.20;;;22.90;99.90;;;;;;5063563;28;20062;-79
2023/08/16 11:27:19;;;;;;;0.20;0.20;;;23.00;99.90;;;;;;5064047;28;20090;-78
2023/08/16 11:29:49;;;;;;;0.20;0.20;;;23.20;99.90;;;;;;5053341;28;20064;-79
2023/08/16 11:32:14;;;;;;;0.20;0.20;;;23.30;99.90;;;;;;5050827;28;20124;-79
2023/08/16 11:34:40;;;;;;;0.20;0.20;;;23.30;99.90;;;;;;5049993;28;20401;-79
2023/08/16 11:37:06;;;;;;;0.20;0.20;;;23.30;99.90;;;;;;5066144;28;20066;-78
2023/08/16 11:39:31;;;;;;;0.20;0.20;;;23.20;99.90;;;;;;5046315;28;20045;-78
2023/08/16 11:41:57;;;;;;;0.20;0.20;;;23.30;99.90;;;;;;5050946;28;20040;-80
2023/08/16 11:44:24;;;;;;;0.20;0.20;;;23.30;99.90;;;;;;5048338;28;20076;-80
2023/08/16 11:46:51;;;;;;;0.20;0.20;;;23.40;99.90;;;;;;5039846;28;20058;-79
2023/08/16 11:49:23;;;;;;;0.20;0.20;;;23.60;99.90;;;;;;5038392;28;20055;-81
2023/08/16 11:51:49;;;;;;;0.20;0.20;;;23.70;99.90;;;;;;5045635;28;20037;-81
2023/08/16 11:54:25;;;;;;;0.20;0.20;;;23.70;99.90;;;;;;5050127;28;20044;-81
2023/08/16 11:56:51;;;;;;;0.20;0.20;;;23.80;99.90;;;;;;5064484;28;20041;-81
2023/08/16 11:59:31;;;;;;;0.20;0.20;;;23.70;99.90;;;;;;5047319;28;20040;-81
2023/08/16 12:01:57;;;;;;;0.20;0.20;;;23.60;99.90;;;;;;5063514;28;20067;-81
2023/08/16 12:04:23;;;;;;;0.20;0.20;;;23.50;99.90;;;;;;5044907;28;20041;-81
2023/08/16 12:06:49;;;;;;;0.20;0.20;;;23.40;99.90;;;;;;5058979;28;20051;-80
2023/08/16 12:09:16;;;;;;;0.20;0.20;;;23.40;99.90;;;;;;5055726;28;20565;-81
2023/08/16 12:11:42;;;;;;;0.20;0.20;;;23.50;99.90;;;;;;5042041;28;20072;-81
2023/08/16 12:14:08;;;;;;;0.20;0.20;;;23.60;99.90;;;;;;5048898;28;20560;-81
2023/08/16 12:16:34;;;;;;;0.20;0.20;;;23.80;99.90;;;;;;5045977;28;20557;-80
2023/08/16 12:19:00;;;;;;;0.20;0.20;;;24.10;99.90;;;;;;5068322;28;20082;-82
2023/08/16 12:21:26;;;;;;;0.17;0.17;;;24.30;99.90;;;;;;5052473;28;20151;-81
2023/08/16 12:23:51;;;;;;;0.20;0.20;;;24.30;99.90;;;;;;5066576;28;20044;-80
2023/08/16 12:26:17;;;;;;;0.20;0.20;;;24.30;99.90;;;;;;5040151;28;20079;-81
2023/08/16 12:28:44;;;;;;;0.20;0.20;;;24.30;99.90;;;;;;5048761;28;20056;-80
2023/08/16 12:31:10;;;;;;;0.20;0.20;;;24.20;99.90;;;;;;5046228;28;20059;-80
2023/08/16 12:33:36;;;;;;;0.20;0.20;;;24.00;99.90;;;;;;5049858;28;20119;-80
2023/08/16 12:36:02;;;;;;;0.10;0.10;;;23.90;99.90;;;;;;5049652;28;20516;-82
2023/08/16 12:38:28;;;;;;;0.20;0.20;;;23.90;99.90;;;;;;5050068;28;20119;-80
2023/08/16 12:40:54;;;;;;;0.17;0.17;;;24.10;99.90;;;;;;5047354;28;20128;-81
2023/08/16 12:43:20;;;;;;;0.20;0.20;;;24.20;99.90;;;;;;5043650;28;20492;-81
2023/08/16 12:45:47;;;;;;;0.20;0.20;;;24.40;99.90;;;;;;5045098;28;20452;-80